Time;durP1;ratioP1;P1;durP2;ratioP2;P2;SDS_P1;SDS_P2;PMS_P1;PMS_P2;Temp;Humidity;BMP_temperature;BMP_pressure;BME280_temperature;BME280_humidity;BME280_pressure;Samples;Min_cycle;Max_cycle;Signal;HPM_P1;HPM_P2
2023/07/01 11:18:27;;;;;;;;;;;26.90;99.90;;;;;;8466398;27;19930;-94
2023/07/01 11:22:28;;;;;;;;;;;27.30;99.80;;;;;;8338814;28;20035;-78
2023/07/01 11:26:31;;;;;;;;;;;26.90;99.90;;;;;;8322730;28;20014;-77
2023/07/01 11:30:31;;;;;;;;;;;27.40;99.90;;;;;;8343026;28;19916;-79
2023/07/01 11:34:32;;;;;;;;;;;27.90;99.90;;;;;;8358448;28;19916;-78
2023/07/01 11:38:41;;;;;;;;;;;28.60;96.40;;;;;;8338592;28;20348;-77
2023/07/01 11:42:42;;;;;;;;;;;29.10;97.90;;;;;;8341449;28;20004;-78
2023/07/01 11:46:43;;;;;;;;;;;29.20;94.60;;;;;;8339954;28;19913;-77
2023/07/01 11:50:53;;;;;;;;;;;27.50;96.60;;;;;;8339079;28;19944;-79
2023/07/01 11:54:54;;;;;;;;;;;26.50;98.10;;;;;;8331594;28;19921;-76
2023/07/01 11:58:55;;;;;;;;;;;27.70;97.00;;;;;;8335148;28;20389;-78
2023/07/01 12:02:55;;;;;;;;;;;28.40;95.30;;;;;;8331182;28;19919;-77
2023/07/01 12:07:12;;;;;;;;;;;28.40;95.50;;;;;;8354185;28;19913;-78
2023/07/01 12:11:19;;;;;;;;;;;29.10;94.10;;;;;;8330956;28;19917;-79
2023/07/01 12:15:21;;;;;;;;;;;29.90;94.40;;;;;;8328302;28;19912;-78
2023/07/01 12:19:22;;;;;;;;;;;29.00;90.60;;;;;;8354726;28;19924;-78
2023/07/01 12:23:23;;;;;;;;;;;28.40;92.70;;;;;;8346894;28;19960;-79
2023/07/01 12:27:24;;;;;;;;;;;27.90;95.20;;;;;;8352579;28;19921;-79
2023/07/01 12:31:24;;;;;;;;;;;29.30;91.80;;;;;;8332263;28;19947;-79
2023/07/01 12:35:25;;;;;;;;;;;29.20;91.20;;;;;;8345969;28;19932;-79
2023/07/01 12:39:26;;;;;;;;;;;30.60;86.80;;;;;;8330014;28;20051;-79
2023/07/01 12:43:27;;;;;;;;;;;30.50;86.20;;;;;;8333411;28;19959;-79
2023/07/01 12:47:27;;;;;;;;;;;31.30;84.90;;;;;;8334106;28;20015;-79
2023/07/01 12:51:28;;;;;;;;;;;32.00;78.80;;;;;;8351540;28;19912;-78
2023/07/01 12:55:28;;;;;;;;;;;33.00;73.30;;;;;;8344630;28;19959;-78
2023/07/01 12:59:29;;;;;;;;;;;32.70;72.70;;;;;;8335765;28;19917;-79
2023/07/01 13:03:29;;;;;;;;;;;32.10;70.30;;;;;;8341948;28;20373;-79
2023/07/01 13:07:31;;;;;;;;;;;31.90;69.70;;;;;;8353888;28;21060;-79
2023/07/01 13:11:32;;;;;;;;;;;31.50;72.10;;;;;;8334611;28;19913;-78
2023/07/01 13:15:33;;;;;;;;;;;31.60;71.70;;;;;;8361322;28;20003;-78
2023/07/01 13:19:34;;;;;;;;;;;31.70;67.90;;;;;;8335831;28;19996;-79
2023/07/01 13:23:34;;;;;;;;;;;31.10;70.70;;;;;;8359376;28;19913;-79
2023/07/01 13:27:35;;;;;;;;;;;30.70;70.50;;;;;;8342211;28;20000;-79
2023/07/01 13:31:35;;;;;;;;;;;29.80;71.70;;;;;;8335386;28;19935;-79
2023/07/01 13:35:37;;;;;;;;;;;28.90;73.90;;;;;;8353206;28;20262;-78
2023/07/01 13:39:42;;;;;;;;;;;28.00;77.50;;;;;;8329098;28;19919;-78
2023/07/01 13:43:42;;;;;;;;;;;27.60;79.80;;;;;;8350534;28;19916;-79
2023/07/01 13:47:44;;;;;;;;;;;27.70;79.50;;;;;;8336084;28;20016;-79
2023/07/01 13:51:45;;;;;;;;;;;27.30;80.20;;;;;;8341322;28;19971;-78
2023/07/01 13:55:46;;;;;;;;;;;27.30;82.30;;;;;;8339756;28;20384;-79
2023/07/01 13:59:47;;;;;;;;;;;27.40;82.10;;;;;;8352257;28;19921;-79
2023/07/01 14:03:48;;;;;;;;;;;27.60;79.20;;;;;;8354502;28;20364;-79
2023/07/01 14:07:55;;;;;;;;;;;27.80;80.00;;;;;;8349721;28;20011;-79
2023/07/01 14:11:56;;;;;;;;;;;28.40;76.10;;;;;;8340293;28;19909;-78
2023/07/01 14:15:56;;;;;;;;;;;27.60;77.80;;;;;;8333680;28;20365;-78
2023/07/01 14:19:59;;;;;;;;;;;27.50;78.80;;;;;;8352449;28;19925;-79
2023/07/01 14:24:04;;;;;;;;;;;27.50;86.80;;;;;;8353663;28;19916;-79
2023/07/01 14:28:08;;;;;;;;;;;27.20;83.00;;;;;;8353224;28;19975;-79
2023/07/01 14:32:11;;;;;;;;;;;27.10;81.90;;;;;;8339111;28;20572;-79
2023/07/01 14:36:14;;;;;;;;;;;26.60;84.20;;;;;;8343226;28;19909;-80
2023/07/01 14:40:14;;;;;;;;;;;26.40;86.30;;;;;;8332633;28;19944;-79
2023/07/01 14:44:19;;;;;;;;;;;26.20;91.40;;;;;;8356147;28;20045;-79
2023/07/01 14:48:20;;;;;;;;;;;26.20;85.80;;;;;;8336378;28;19924;-79
2023/07/01 14:52:20;;;;;;;;;;;26.30;90.90;;;;;;8342522;28;20439;-78
2023/07/01 14:56:21;;;;;;;;;;;26.80;87.60;;;;;;8339670;28;19912;-79
2023/07/01 15:00:22;;;;;;;;;;;28.30;88.00;;;;;;8351328;28;19976;-79
2023/07/01 15:04:23;;;;;;;;;;;31.80;78.40;;;;;;8334852;28;19920;-79
2023/07/01 15:08:23;;;;;;;;;;;30.70;76.30;;;;;;8329449;28;19919;-79
2023/07/01 15:12:23;;;;;;;;;;;29.30;78.00;;;;;;8351143;28;19912;-80
2023/07/01 15:16:25;;;;;;;;;;;27.80;82.20;;;;;;8359187;28;20019;-80
2023/07/01 15:20:25;;;;;;;;;;;26.90;82.30;;;;;;8348672;28;20389;-80
2023/07/01 15:24:26;;;;;;;;;;;26.90;87.60;;;;;;8337892;28;19968;-78
2023/07/01 15:28:26;;;;;;;;;;;27.00;84.40;;;;;;8338076;28;19980;-78
2023/07/01 15:32:27;;;;;;;;;;;27.30;89.90;;;;;;8352777;28;19921;-78
2023/07/01 15:36:27;;;;;;;;;;;27.80;83.70;;;;;;8334465;28;20533;-80
2023/07/01 15:40:28;;;;;;;;;;;27.40;88.50;;;;;;8341427;28;19913;-79
2023/07/01 15:44:28;;;;;;;;;;;27.10;86.60;;;;;;8354612;28;20443;-79
2023/07/01 15:48:29;;;;;;;;;;;26.20;90.50;;;;;;8352452;28;19923;-78
2023/07/01 15:52:30;;;;;;;;;;;25.60;89.90;;;;;;8342636;28;19920;-79
2023/07/01 15:56:31;;;;;;;;;;;25.00;91.40;;;;;;8333397;28;19933;-79
2023/07/01 16:00:31;;;;;;;;;;;24.50;94.70;;;;;;8342042;28;19909;-79
2023/07/01 16:04:33;;;;;;;;;;;24.50;94.00;;;;;;8340003;28;19916;-78
2023/07/01 16:08:34;;;;;;;;;;;24.60;93.10;;;;;;8343686;28;20381;-77
2023/07/01 16:12:36;;;;;;;;;;;24.30;92.40;;;;;;8329968;28;19983;-78
2023/07/01 16:16:37;;;;;;;;;;;24.20;92.70;;;;;;8331599;28;19932;-77
2023/07/01 16:20:37;;;;;;;;;;;24.30;92.90;;;;;;8344111;28;19920;-78
2023/07/01 16:24:48;;;;;;;;;;;24.40;93.10;;;;;;8348086;28;19917;-78
2023/07/01 16:28:49;;;;;;;;;;;24.40;93.70;;;;;;8332564;28;19932;-77
2023/07/01 16:32:52;;;;;;;;;;;24.10;92.20;;;;;;8325268;28;19917;-79
2023/07/01 16:36:53;;;;;;;;;;;24.00;93.80;;;;;;8356147;28;20646;-79
2023/07/01 16:40:53;;;;;;;;;;;23.90;94.90;;;;;;8364573;28;19924;-80
2023/07/01 16:44:54;;;;;;;;;;;23.70;95.30;;;;;;8344498;28;19913;-79
2023/07/01 16:48:56;;;;;;;;;;;23.30;95.60;;;;;;8335228;28;19921;-79
2023/07/01 16:52:57;;;;;;;;;;;23.10;95.60;;;;;;8352423;28;20024;-79
2023/07/01 16:56:58;;;;;;;;;;;22.90;96.80;;;;;;8353527;28;20000;-78
2023/07/01 17:01:00;;;;;;;;;;;23.00;94.70;;;;;;8340820;28;19944;-78
2023/07/01 17:05:06;;;;;;;;;;;23.00;96.50;;;;;;8345095;28;19928;-78
2023/07/01 17:09:24;;;;;;;;;;;23.10;96.10;;;;;;8328237;28;19984;-78
2023/07/01 17:13:24;;;;;;;;;;;22.80;98.40;;;;;;8340641;28;19912;-79
2023/07/01 17:17:28;;;;;;;;;;;22.80;97.30;;;;;;8332814;28;19928;-79
2023/07/01 17:21:28;;;;;;;;;;;22.80;97.80;;;;;;8325795;28;20145;-79
2023/07/01 17:25:29;;;;;;;;;;;22.80;97.00;;;;;;8336789;28;19913;-79
2023/07/01 17:29:29;;;;;;;;;;;22.90;98.00;;;;;;8331361;28;19921;-79
2023/07/01 17:33:29;;;;;;;;;;;23.00;97.50;;;;;;8324788;28;19920;-79
2023/07/01 17:37:30;;;;;;;;;;;22.90;97.60;;;;;;8330537;28;19928;-78
2023/07/01 17:41:30;;;;;;;;;;;22.60;98.00;;;;;;8336648;28;19959;-79
2023/07/01 17:45:31;;;;;;;;;;;22.30;99.20;;;;;;8339394;28;19944;-79
2023/07/01 17:49:31;;;;;;;;;;;22.20;99.30;;;;;;8339611;28;19924;-79
2023/07/01 17:53:32;;;;;;;;;;;22.00;99.30;;;;;;8340736;28;20290;-79
2023/07/01 17:57:32;;;;;;;;;;;21.70;99.90;;;;;;8357030;28;20031;-79
2023/07/01 18:01:33;;;;;;;;;;;21.40;99.90;;;;;;8341874;28;19937;-79
2023/07/01 18:05:33;;;;;;;;;;;21.40;99.90;;;;;;8339379;28;19913;-79
2023/07/01 18:09:33;;;;;;;;;;;21.30;99.90;;;;;;8340521;28;20400;-79
2023/07/01 18:13:34;;;;;;;;;;;21.50;99.90;;;;;;8360120;28;19921;-79
2023/07/01 18:17:34;;;;;;;;;;;21.70;99.90;;;;;;8351387;28;19921;-79
2023/07/01 18:21:35;;;;;;;;;;;21.30;99.90;;;;;;8334112;28;19920;-79
2023/07/01 18:25:35;;;;;;;;;;;21.10;99.90;;;;;;8320950;28;19910;-79
2023/07/01 18:29:37;;;;;;;;;;;21.40;99.90;;;;;;8339155;28;19940;-79
2023/07/01 18:33:38;;;;;;;;;;;21.20;99.90;;;;;;8326842;28;20365;-79
2023/07/01 18:37:38;;;;;;;;;;;21.20;99.90;;;;;;8344241;28;19912;-79
2023/07/01 18:41:39;;;;;;;;;;;21.10;99.90;;;;;;8347795;28;19912;-79
2023/07/01 18:45:39;;;;;;;;;;;20.40;99.90;;;;;;8359695;28;20503;-79
2023/07/01 18:49:40;;;;;;;;;;;20.90;99.90;;;;;;8346921;28;19932;-79
2023/07/01 18:53:40;;;;;;;;;;;20.40;99.90;;;;;;8360432;28;19995;-79
2023/07/01 18:57:41;;;;;;;;;;;20.40;99.90;;;;;;8322259;28;19913;-79
2023/07/01 19:01:41;;;;;;;;;;;20.20;99.90;;;;;;8373399;28;20368;-80
2023/07/01 19:05:42;;;;;;;;;;;20.30;99.90;;;;;;8355811;28;19920;-79
2023/07/01 19:09:43;;;;;;;;;;;20.20;99.90;;;;;;8315583;28;19917;-78
2023/07/01 19:13:43;;;;;;;;;;;20.30;99.90;;;;;;8337484;28;19917;-80
2023/07/01 19:17:44;;;;;;;;;;;20.00;99.90;;;;;;8354998;28;19936;-80
2023/07/01 19:21:44;;;;;;;;;;;20.00;99.90;;;;;;8364939;28;19925;-79
2023/07/01 19:25:45;;;;;;;;;;;19.70;99.90;;;;;;8330675;28;19913;-79
2023/07/01 19:29:46;;;;;;;;;;;19.70;99.90;;;;;;8338956;28;19924;-77
2023/07/01 19:33:47;;;;;;;;;;;18.80;99.90;;;;;;8327928;28;20157;-76
2023/07/01 19:37:47;;;;;;;;;;;18.00;99.90;;;;;;8349062;28;19916;-77
2023/07/01 19:41:48;;;;;;;;;;;17.40;99.90;;;;;;8326694;28;19913;-77
2023/07/01 19:45:49;;;;;;;;;;;17.30;99.90;;;;;;8332520;28;19958;-77
2023/07/01 19:49:50;;;;;;;;;;;17.20;99.90;;;;;;8324873;28;19924;-77
2023/07/01 19:53:51;;;;;;;;;;;17.00;99.90;;;;;;8349579;28;19917;-78
2023/07/01 19:57:52;;;;;;;;;;;16.80;99.90;;;;;;8327083;28;19913;-77
2023/07/01 20:01:52;;;;;;;;;;;16.70;99.90;;;;;;8348523;28;20385;-77
2023/07/01 20:05:53;;;;;;;;;;;16.90;99.90;;;;;;8326582;28;19913;-77
2023/07/01 20:09:53;;;;;;;;;;;16.70;99.90;;;;;;8319825;28;19921;-78
2023/07/01 20:13:54;;;;;;;;;;;16.70;99.90;;;;;;8353234;28;19958;-78
2023/07/01 20:17:55;;;;;;;;;;;16.70;99.90;;;;;;8326790;28;20355;-76
2023/07/01 20:21:55;;;;;;;;;;;16.90;99.90;;;;;;8344438;28;19923;-76
2023/07/01 20:25:55;;;;;;;;;;;16.90;99.90;;;;;;8327596;28;19963;-76
2023/07/01 20:29:56;;;;;;;;;;;16.90;99.90;;;;;;8329127;28;20372;-77
2023/07/01 20:33:56;;;;;;;;;;;17.20;99.90;;;;;;8334744;28;20558;-76
2023/07/01 20:37:57;;;;;;;;;;;17.00;99.90;;;;;;8331034;28;19921;-77
2023/07/01 20:41:59;;;;;;;;;;;17.10;99.90;;;;;;8348202;28;19971;-77
2023/07/01 20:45:59;;;;;;;;;;;16.80;99.90;;;;;;8331322;28;19928;-75
2023/07/01 20:50:00;;;;;;;;;;;16.90;99.90;;;;;;8349690;28;19924;-75
2023/07/01 20:54:00;;;;;;;;;;;17.10;99.90;;;;;;8338112;28;20499;-77
2023/07/01 20:58:00;;;;;;;;;;;17.00;99.90;;;;;;8339892;28;19913;-76
2023/07/01 21:02:01;;;;;;;;;;;17.50;99.90;;;;;;8317225;28;19916;-77
2023/07/01 21:06:02;;;;;;;;;;;17.30;99.90;;;;;;8332965;28;19924;-76
2023/07/01 21:10:02;;;;;;;;;;;17.40;99.90;;;;;;8335793;28;20453;-77
2023/07/01 21:14:04;;;;;;;;;;;17.40;99.90;;;;;;8316814;28;19916;-76
2023/07/01 21:18:04;;;;;;;;;;;17.30;99.90;;;;;;8351741;28;19913;-75
2023/07/01 21:22:05;;;;;;;;;;;17.20;99.90;;;;;;8338992;28;19917;-75
2023/07/01 21:26:05;;;;;;;;;;;17.30;99.90;;;;;;8333327;28;20004;-77
2023/07/01 21:30:13;;;;;;;;;;;17.10;99.90;;;;;;8324328;28;19916;-77
2023/07/01 21:34:14;;;;;;;;;;;17.10;99.90;;;;;;8336360;28;19940;-76
2023/07/01 21:38:15;;;;;;;;;;;17.20;99.90;;;;;;8350747;28;19925;-75
2023/07/01 21:42:18;;;;;;;;;;;17.10;99.90;;;;;;8356232;28;19949;-76
2023/07/01 21:46:19;;;;;;;;;;;17.30;99.90;;;;;;8342589;28;19912;-76
2023/07/01 21:50:39;;;;;;;;;;;17.40;99.90;;;;;;8334496;28;19927;-77
2023/07/01 21:54:40;;;;;;;;;;;17.20;99.90;;;;;;8359446;28;19916;-77
2023/07/01 21:58:45;;;;;;;;;;;17.30;99.90;;;;;;8334882;28;19913;-77
2023/07/01 22:02:46;;;;;;;;;;;17.20;99.90;;;;;;8346625;28;19931;-77
2023/07/01 22:06:47;;;;;;;;;;;17.00;99.90;;;;;;8364263;28;19913;-76
2023/07/01 22:10:49;;;;;;;;;;;17.20;99.90;;;;;;8321603;28;19917;-77
2023/07/01 22:14:50;;;;;;;;;;;17.20;99.90;;;;;;8352864;28;19957;-77
2023/07/01 22:18:51;;;;;;;;;;;17.50;99.90;;;;;;8336002;28;19925;-79
2023/07/01 22:22:51;;;;;;;;;;;17.20;99.90;;;;;;8342875;28;20055;-78
2023/07/01 22:26:51;;;;;;;;;;;16.80;99.90;;;;;;8314815;28;19920;-79
2023/07/01 22:30:52;;;;;;;;;;;17.20;99.90;;;;;;8361879;28;20604;-79
2023/07/01 22:34:52;;;;;;;;;;;16.80;99.90;;;;;;8325077;28;19913;-79
2023/07/01 22:38:55;;;;;;;;;;;17.10;99.90;;;;;;8319980;28;19923;-79
2023/07/01 22:42:55;;;;;;;;;;;17.00;99.90;;;;;;8341916;28;19909;-80
2023/07/01 22:46:56;;;;;;;;;;;16.90;99.90;;;;;;8369219;28;19956;-78
2023/07/01 22:50:56;;;;;;;;;;;17.30;99.90;;;;;;8350366;28;19968;-79
2023/07/01 22:54:57;;;;;;;;;;;17.10;99.90;;;;;;8322956;28;19967;-78
2023/07/01 22:58:57;;;;;;;;;;;16.90;99.90;;;;;;8325601;28;19967;-79
2023/07/01 23:02:57;;;;;;;;;;;16.90;99.90;;;;;;8347863;28;19916;-81
2023/07/01 23:06:58;;;;;;;;;;;16.80;99.90;;;;;;8363764;28;19917;-79
2023/07/01 23:10:58;;;;;;;;;;;16.90;99.90;;;;;;8350022;28;19960;-77
2023/07/01 23:14:59;;;;;;;;;;;16.70;99.90;;;;;;8364528;28;19996;-77
2023/07/01 23:19:00;;;;;;;;;;;16.60;99.90;;;;;;8323495;28;19913;-77
2023/07/01 23:23:02;;;;;;;;;;;16.60;99.90;;;;;;8340994;28;19954;-76
2023/07/01 23:27:03;;;;;;;;;;;16.70;99.90;;;;;;8315679;28;19920;-76
2023/07/01 23:31:03;;;;;;;;;;;16.70;99.90;;;;;;8349288;28;20023;-77
2023/07/01 23:35:04;;;;;;;;;;;16.60;99.90;;;;;;8350707;28;19936;-77
2023/07/01 23:39:05;;;;;;;;;;;16.80;99.90;;;;;;8321125;28;20500;-77
2023/07/01 23:43:05;;;;;;;;;;;16.80;99.90;;;;;;8355117;28;19916;-77
2023/07/01 23:47:06;;;;;;;;;;;16.70;99.90;;;;;;8345702;28;19920;-75
2023/07/01 23:51:06;;;;;;;;;;;16.70;99.90;;;;;;8347168;28;20381;-77
2023/07/01 23:55:07;;;;;;;;;;;16.80;99.90;;;;;;8331436;28;20689;-77
2023/07/01 23:59:08;;;;;;;;;;;16.80;99.90;;;;;;8330342;28;19923;-77
